Time;durP1;ratioP1;P1;durP2;ratioP2;P2;SDS_P1;SDS_P2;PMS_P1;PMS_P2;Temp;Humidity;BMP_temperature;BMP_pressure;BME280_temperature;BME280_humidity;BME280_pressure;Samples;Min_cycle;Max_cycle;Signal;HPM_P1;HPM_P2
2022/12/29 14:09:04;;;;;;;65.38;60.35;;;;;;;8.40;100.00;102030.75;5128749;27;20396;-91
2022/12/29 14:11:33;;;;;;;64.53;59.15;;;;;;;8.37;100.00;102033.66;5111583;28;20071;-90
2022/12/29 14:14:20;;;;;;;65.88;60.65;;;;;;;7.57;100.00;102042.63;5111739;28;20536;-91
2022/12/29 14:17:20;;;;;;;63.58;58.28;;;;;;;7.59;100.00;102037.19;5112785;28;20109;-90
2022/12/29 14:19:54;;;;;;;64.18;58.47;;;;;;;7.08;100.00;102034.31;5091832;28;20121;-88
2022/12/29 14:26:24;;;;;;;63.25;57.95;;;;;;;7.01;100.00;102035.03;5101948;28;20043;-90
2022/12/29 14:29:32;;;;;;;64.15;58.72;;;;;;;6.55;100.00;102028.94;5110863;28;20121;-87
2022/12/29 14:32:01;;;;;;;62.83;57.53;;;;;;;5.51;100.00;102042.16;5101705;28;20060;-89
2022/12/29 14:34:39;;;;;;;61.38;55.97;;;;;;;5.96;100.00;102042.38;5093475;28;20055;-89
2022/12/29 14:37:23;;;;;;;62.53;57.40;;;;;;;6.13;100.00;102042.59;5104099;28;20059;-88
2022/12/29 14:39:50;;;;;;;60.58;55.28;;;;;;;5.61;100.00;102032.44;5102404;28;20403;-89
2022/12/29 14:42:22;;;;;;;59.75;54.58;;;;;;;5.40;100.00;102042.31;5107154;28;20382;-89
2022/12/29 14:44:51;;;;;;;62.05;56.03;;;;;;;5.18;100.00;102040.78;5093575;28;20153;-86
2022/12/29 14:47:23;;;;;;;60.88;55.63;;;;;;;4.47;100.00;102033.03;5095796;28;20048;-87
2022/12/29 14:53:03;;;;;;;61.63;56.38;;;;;;;4.75;100.00;102037.53;5081367;27;20390;-90
2022/12/29 14:55:40;;;;;;;59.42;54.42;;;;;;;4.57;100.00;102041.78;5053690;28;20053;-88
2022/12/29 15:01:44;;;;;;;57.55;52.60;;;;;;;4.11;100.00;102041.34;5065363;27;20753;-88
2022/12/29 15:04:36;;;;;;;;;;;;;;;;;;;;;
2022/12/29 15:07:17;;;;;;;61.30;55.70;;;;;;;3.94;100.00;102039.31;5124152;27;20397;-89
2022/12/29 15:09:57;;;;;;;60.55;55.25;;;;;;;3.58;100.00;102044.06;5117509;28;20455;-89
2022/12/29 15:12:39;;;;;;;63.45;57.65;;;;;;;3.41;100.00;102032.31;5109906;28;20453;-89
2022/12/29 15:15:20;;;;;;;63.13;56.75;;;;;;;3.28;100.00;102036.94;5111133;28;20108;-88
2022/12/29 15:20:33;;;;;;;64.10;58.30;;;;;;;3.47;100.00;102045.91;5125218;27;20427;-90
2022/12/29 15:23:09;;;;;;;65.38;59.47;;;;;;;3.26;100.00;102040.63;5103489;28;20064;-88
2022/12/29 15:25:39;;;;;;;65.72;59.17;;;;;;;3.07;100.00;102033.44;5111413;28;20052;-89
2022/12/29 15:28:08;;;;;;;70.63;63.55;;;;;;;2.99;100.00;102041.91;5110164;28;20135;-90
2022/12/29 15:30:50;;;;;;;69.57;62.35;;;;;;;3.31;100.00;102041.09;5111553;28;20268;-90
2022/12/29 15:33:19;;;;;;;65.22;58.92;;;;;;;3.08;100.00;102045.59;5111374;28;20063;-87
2022/12/29 15:35:51;;;;;;;76.72;68.85;;;;;;;2.92;100.00;102046.00;5110765;28;20047;-87
2022/12/29 15:41:23;;;;;;;81.78;72.65;;;;;;;2.83;100.00;102044.94;5102529;27;20396;-88
2022/12/29 15:43:59;;;;;;;83.40;68.75;;;;;;;3.14;100.00;102050.34;5090432;28;20115;-88
2022/12/29 15:46:27;;;;;;;74.95;66.43;;;;;;;2.77;100.00;102047.22;5090187;28;20070;-87
2022/12/29 15:48:55;;;;;;;79.25;70.65;;;;;;;2.57;100.00;102047.00;5090837;28;20056;-88
2022/12/29 15:54:17;;;;;;;89.75;73.55;;;;;;;2.32;100.00;102045.47;5109642;27;20851;-88
2022/12/29 15:59:29;;;;;;;96.05;75.68;;;;;;;1.93;100.00;102059.88;5146458;27;20389;-88
2022/12/29 16:01:57;;;;;;;108.57;81.53;;;;;;;1.81;100.00;102044.13;5141964;27;20059;-89
2022/12/29 16:07:24;;;;;;;127.55;87.95;;;;;;;1.94;100.00;102045.84;5103071;27;20886;-88
2022/12/29 16:09:56;;;;;;;95.45;79.05;;;;;;;2.21;100.00;102041.09;5090655;28;20385;-87
2022/12/29 16:12:26;;;;;;;95.47;80.38;;;;;;;2.20;100.00;102046.44;5090612;28;20052;-88
2022/12/29 16:20:41;;;;;;;119.95;85.80;;;;;;;1.82;100.00;102039.72;5130224;27;20914;-90
2022/12/29 16:23:21;;;;;;;154.93;97.07;;;;;;;1.51;100.00;102042.03;5091146;28;20257;-87
2022/12/29 16:25:48;;;;;;;185.00;111.20;;;;;;;1.36;100.00;102044.00;5113918;28;20097;-89
2022/12/29 16:28:22;;;;;;;202.80;113.93;;;;;;;1.44;100.00;102055.69;5122435;28;20116;-89
2022/12/29 16:30:59;;;;;;;194.52;115.15;;;;;;;1.40;100.00;102049.84;5120370;27;20051;-87
2022/12/29 16:33:41;;;;;;;239.77;129.75;;;;;;;1.50;100.00;102042.97;5123032;27;20079;-87
2022/12/29 16:44:17;;;;;;;208.40;111.88;;;;;;;0.91;100.00;102049.03;5086082;27;20383;-88
2022/12/29 16:49:25;;;;;;;199.45;109.05;;;;;;;0.69;100.00;102043.66;5077296;27;20447;-88
2022/12/29 16:51:54;;;;;;;186.50;108.22;;;;;;;0.85;100.00;102040.81;5084970;28;20299;-89
2022/12/29 16:54:24;;;;;;;184.77;106.68;;;;;;;0.93;100.00;102042.84;5087833;28;20146;-88
2022/12/29 16:56:53;;;;;;;207.02;114.88;;;;;;;0.85;100.00;102046.03;5076974;28;20118;-87
2022/12/29 17:03:01;;;;;;;214.98;117.78;;;;;;;0.70;100.00;102034.88;5145247;27;20399;-88
2022/12/29 17:05:28;;;;;;;201.45;112.00;;;;;;;0.57;100.00;102029.66;5140022;27;20047;-87
2022/12/29 17:08:00;;;;;;;160.70;97.68;;;;;;;0.36;100.00;102021.56;5141289;27;20136;-90
2022/12/29 17:11:53;;;;;;;;;;;;;;;0.38;100.00;102024.06;5143459;27;20043;-89
2022/12/29 17:15:55;;;;;;;140.15;90.95;;;;;;;0.19;100.00;102014.91;5145307;27;20435;-87
2022/12/29 17:18:22;;;;;;;143.05;97.28;;;;;;;0.33;100.00;102013.94;5142389;27;20058;-89
2022/12/29 17:26:38;;;;;;;188.48;107.68;;;;;;;0.14;100.00;102024.84;5100838;27;20513;-88
2022/12/29 17:29:05;;;;;;;206.93;119.00;;;;;;;0.14;100.00;102021.38;5090883;28;20047;-90
2022/12/29 17:31:32;;;;;;;204.95;115.43;;;;;;;0.07;100.00;102015.75;5090459;28;20044;-89
2022/12/29 17:34:00;;;;;;;211.00;118.93;;;;;;;0.16;100.00;102009.91;5089842;28;20066;-91
2022/12/29 17:39:19;;;;;;;;;;;;;;;;;;;;;
2022/12/29 17:41:51;;;;;;;111.82;78.47;;;;;;;0.13;100.00;102023.16;5159064;27;20401;-91
2022/12/29 17:44:20;;;;;;;96.05;68.88;;;;;;;0.18;100.00;102017.59;5142882;27;20043;-92
2022/12/29 17:46:50;;;;;;;87.03;72.32;;;;;;;0.30;100.00;102018.53;5143545;28;20048;-91
2022/12/29 17:49:18;;;;;;;102.03;77.80;;;;;;;0.21;100.00;102006.94;5141631;28;20047;-91
2022/12/29 17:51:46;;;;;;;145.02;94.25;;;;;;;0.08;100.00;102022.63;5141229;27;20047;-91
2022/12/29 17:54:21;;;;;;;131.02;88.13;;;;;;;0.06;100.00;102013.22;5142870;27;20035;-91
2022/12/29 17:59:31;;;;;;;215.15;111.22;;;;;;;-0.12;100.00;102015.31;5107762;27;20397;-88
2022/12/29 18:01:58;;;;;;;249.27;121.57;;;;;;;-0.16;100.00;102019.94;5099973;28;20373;-89
2022/12/29 18:04:25;;;;;;;309.15;133.30;;;;;;;-0.30;100.00;102020.06;5100256;28;20059;-87
2022/12/29 18:06:52;;;;;;;250.73;118.47;;;;;;;-0.33;100.00;102022.88;5102424;28;20043;-87
2022/12/29 18:12:46;;;;;;;290.83;136.00;;;;;;;-0.16;100.00;102013.88;5125306;27;20435;-87
2022/12/29 18:18:02;;;;;;;216.25;118.88;;;;;;;-0.21;100.00;102018.56;5145920;27;20912;-87
2022/12/29 18:20:30;;;;;;;213.23;117.18;;;;;;;-0.36;100.00;102023.91;5141011;27;20051;-86
2022/12/29 18:22:57;;;;;;;217.60;118.70;;;;;;;-0.68;100.00;102022.59;5134604;27;20070;-88
2022/12/29 18:28:04;;;;;;;268.30;136.65;;;;;;;-0.52;100.00;102016.22;5137919;27;20418;-87
2022/12/29 18:30:31;;;;;;;244.48;122.68;;;;;;;-0.82;100.00;102019.09;5095419;28;20044;-86
2022/12/29 18:32:58;;;;;;;228.75;122.13;;;;;;;-0.51;100.00;102028.38;5104319;28;20044;-87
2022/12/29 18:35:28;;;;;;;239.52;120.85;;;;;;;-0.50;100.00;102016.97;5102256;28;20067;-87
2022/12/29 18:40:38;;;;;;;218.32;117.93;;;;;;;-0.89;100.00;102023.03;5104502;27;20406;-89
2022/12/29 18:43:05;;;;;;;248.25;124.85;;;;;;;-0.67;100.00;102025.09;5098249;28;20059;-89
2022/12/29 18:45:33;;;;;;;245.02;126.38;;;;;;;-0.46;100.00;102028.03;5095216;28;20047;-90
2022/12/29 18:48:03;;;;;;;233.55;125.43;;;;;;;-0.47;100.00;102015.94;5100849;28;20400;-89
2022/12/29 19:01:37;;;;;;;167.65;104.95;;;;;;;-0.90;100.00;102029.22;5086536;27;20406;-90
2022/12/29 19:07:25;;;;;;;204.18;115.13;;;;;;;-0.94;100.00;102039.00;5134361;27;20428;-89
2022/12/29 19:09:52;;;;;;;154.48;100.72;;;;;;;-0.96;100.00;102033.03;5105582;28;20112;-87
2022/12/29 19:12:19;;;;;;;118.95;81.70;;;;;;;-1.21;100.00;102027.72;5098437;28;20056;-87
2022/12/29 19:17:56;;;;;;;117.03;79.78;;;;;;;-0.95;100.00;102032.09;5101990;27;20898;-87
2022/12/29 19:20:29;;;;;;;170.98;108.72;;;;;;;-1.02;100.00;102043.03;5058592;28;20386;-89
2022/12/29 19:22:57;;;;;;;263.13;131.32;;;;;;;-1.07;100.00;102039.88;5051932;28;20079;-89
2022/12/29 19:25:24;;;;;;;275.58;135.20;;;;;;;-1.10;100.00;102034.84;5057577;28;20056;-88
2022/12/29 19:30:51;;;;;;;299.23;135.88;;;;;;;-0.88;100.00;102044.75;5145257;27;20361;-89
2022/12/29 19:36:02;;;;;;;145.38;94.75;;;;;;;-1.06;100.00;102041.53;5104221;27;20432;-88
2022/12/29 19:38:29;;;;;;;155.02;94.22;;;;;;;-1.10;100.00;102037.47;5090790;28;20048;-88
2022/12/29 19:43:37;;;;;;;114.43;82.60;;;;;;;-1.12;100.00;102044.53;5124643;27;20947;-87
2022/12/29 19:46:07;;;;;;;157.98;105.28;;;;;;;-1.26;100.00;102028.00;5110845;28;20395;-88
2022/12/29 19:48:35;;;;;;;142.15;97.00;;;;;;;-1.26;100.00;102035.00;5110779;28;20047;-88
2022/12/29 19:51:07;;;;;;;122.05;91.28;;;;;;;-1.22;100.00;102033.88;5110322;28;20054;-88
2022/12/29 19:53:36;;;;;;;133.50;97.00;;;;;;;-1.14;100.00;102031.63;5111412;28;20048;-88
2022/12/29 19:56:04;;;;;;;140.40;95.05;;;;;;;-1.20;100.00;102030.22;5109547;28;20127;-87
2022/12/29 19:58:32;;;;;;;135.52;97.38;;;;;;;-1.13;100.00;102022.84;5110107;28;20040;-89
2022/12/29 20:01:06;;;;;;;139.10;99.93;;;;;;;-1.16;100.00;102033.47;5110300;28;20480;-87
2022/12/29 20:06:14;;;;;;;145.70;95.97;;;;;;;-1.19;100.00;102031.91;5084067;27;20455;-88
2022/12/29 20:08:41;;;;;;;147.07;98.55;;;;;;;-1.05;100.00;102020.59;5090781;28;20044;-87
2022/12/29 20:11:10;;;;;;;144.80;92.55;;;;;;;-1.18;100.00;102020.56;5083383;28;20052;-90
2022/12/29 20:16:20;;;;;;;153.73;97.60;;;;;;;-1.31;100.00;102017.03;5084189;27;21028;-90
2022/12/29 20:21:27;;;;;;;160.80;97.28;;;;;;;-1.32;100.00;102007.53;5104582;27;20442;-89
2022/12/29 20:26:43;;;;;;;158.90;99.50;;;;;;;-1.17;100.00;101996.13;5079860;27;20389;-89
2022/12/29 20:31:52;;;;;;;154.80;98.57;;;;;;;-1.35;100.00;101996.47;5121943;27;20463;-88
2022/12/29 20:34:19;;;;;;;155.40;99.88;;;;;;;-1.34;100.00;101995.53;5122465;28;20480;-87
2022/12/29 20:36:48;;;;;;;163.15;101.10;;;;;;;-1.48;100.00;101996.44;5118343;28;20097;-87
2022/12/29 20:39:17;;;;;;;157.90;99.07;;;;;;;-1.45;100.00;101989.25;5128795;28;20043;-87
